Time;durP1;ratioP1;P1;durP2;ratioP2;P2;SDS_P1;SDS_P2;PMS_P1;PMS_P2;Temp;Humidity;BMP_temperature;BMP_pressure;BME280_temperature;BME280_humidity;BME280_pressure;Samples;Min_cycle;Max_cycle;Signal;HPM_P1;HPM_P2
2023/06/02 16:11:25;;;;;;;6.93;1.30;;;19.70;98.60;;;;;;5021783;23;20213;-69
2023/06/02 16:13:52;;;;;;;5.97;1.50;;;19.60;98.10;;;;;;4943427;29;20217;-69
2023/06/02 16:16:19;;;;;;;3.88;1.30;;;19.50;98.00;;;;;;4954878;29;20228;-69
2023/06/02 16:18:46;;;;;;;3.47;1.30;;;19.50;98.60;;;;;;4928406;29;20300;-69
2023/06/02 16:21:13;;;;;;;3.45;1.60;;;19.50;97.90;;;;;;4918163;29;20654;-69
2023/06/02 16:23:39;;;;;;;5.10;1.40;;;19.30;98.70;;;;;;4927051;29;20211;-69
2023/06/02 16:26:07;;;;;;;4.32;1.50;;;19.30;98.60;;;;;;4937087;29;20292;-69
2023/06/02 16:28:35;;;;;;;4.43;1.65;;;19.10;98.90;;;;;;4941154;29;20573;-70
2023/06/02 16:31:02;;;;;;;5.40;1.45;;;19.00;99.10;;;;;;4937488;29;20299;-69
2023/06/02 16:33:28;;;;;;;8.77;1.50;;;19.20;99.40;;;;;;4937191;29;20217;-69
2023/06/02 16:35:55;;;;;;;3.15;1.50;;;19.10;99.20;;;;;;4937077;29;20672;-69
2023/06/02 16:38:22;;;;;;;2.65;1.05;;;19.10;99.10;;;;;;4936522;29;20301;-68
2023/06/02 16:40:50;;;;;;;5.53;1.38;;;19.20;99.00;;;;;;4932769;29;20259;-65
2023/06/02 16:43:19;;;;;;;3.70;1.58;;;19.20;99.10;;;;;;4935642;29;20205;-68
2023/06/02 16:45:47;;;;;;;5.30;1.95;;;19.30;99.40;;;;;;4936063;29;20256;-69
2023/06/02 16:48:14;;;;;;;8.27;1.77;;;19.30;99.40;;;;;;4935871;29;20233;-69
2023/06/02 16:50:41;;;;;;;5.05;1.58;;;19.40;99.20;;;;;;4937484;29;20212;-69
2023/06/02 16:53:08;;;;;;;5.87;1.60;;;19.60;99.20;;;;;;4936092;29;20201;-71
2023/06/02 16:55:35;;;;;;;3.58;1.40;;;19.70;99.00;;;;;;4935162;29;20212;-67
2023/06/02 16:58:02;;;;;;;5.82;1.55;;;19.70;99.10;;;;;;4936105;29;20759;-68
2023/06/02 17:00:29;;;;;;;8.88;1.88;;;19.60;99.40;;;;;;4935867;29;20664;-67
2023/06/02 17:02:58;;;;;;;4.75;1.75;;;19.30;99.90;;;;;;4935868;29;20721;-69
2023/06/02 17:05:24;;;;;;;2.85;1.50;;;19.30;99.90;;;;;;4941857;28;20329;-67
2023/06/02 17:07:51;;;;;;;4.65;1.60;;;19.20;99.70;;;;;;4935144;29;20239;-69
2023/06/02 17:10:18;;;;;;;7.50;1.70;;;19.10;99.50;;;;;;4936516;29;20240;-72
2023/06/02 17:12:45;;;;;;;6.20;1.50;;;19.00;99.50;;;;;;4936805;29;20231;-69
2023/06/02 17:15:12;;;;;;;5.83;1.60;;;18.90;99.80;;;;;;4936654;29;20678;-73
2023/06/02 17:17:39;;;;;;;3.13;1.65;;;18.80;99.90;;;;;;4936474;29;20229;-71
2023/06/02 17:20:09;;;;;;;4.28;1.65;;;18.90;99.90;;;;;;4936359;29;20208;-71
2023/06/02 17:22:37;;;;;;;5.63;1.60;;;19.10;99.90;;;;;;4936612;29;20264;-69
2023/06/02 17:25:04;;;;;;;4.30;1.40;;;19.10;99.90;;;;;;4936356;29;20660;-67
2023/06/02 17:27:31;;;;;;;6.23;1.93;;;18.90;99.70;;;;;;4936135;29;20232;-67
2023/06/02 17:29:59;;;;;;;3.63;1.40;;;18.80;99.90;;;;;;4936284;29;20280;-68
2023/06/02 17:32:26;;;;;;;7.72;2.03;;;18.60;99.90;;;;;;4936266;29;20311;-66
2023/06/02 17:34:53;;;;;;;3.80;1.50;;;18.50;99.90;;;;;;4936288;29;20208;-66
2023/06/02 17:37:21;;;;;;;3.33;1.63;;;18.40;99.90;;;;;;4936441;29;20256;-66
2023/06/02 17:39:48;;;;;;;4.43;1.83;;;18.30;99.90;;;;;;4936202;29;20213;-65
2023/06/02 17:42:15;;;;;;;5.50;1.60;;;18.40;99.90;;;;;;4936080;29;20232;-69
2023/06/02 17:44:43;;;;;;;5.53;1.60;;;18.40;99.90;;;;;;4936109;29;20209;-67
2023/06/02 17:47:10;;;;;;;7.00;1.83;;;18.50;99.90;;;;;;4935893;29;20291;-66
2023/06/02 17:49:37;;;;;;;5.33;1.40;;;18.70;99.90;;;;;;4936147;29;20571;-65
2023/06/02 17:52:05;;;;;;;8.97;2.30;;;18.70;99.90;;;;;;4935705;29;20695;-67
2023/06/02 17:54:33;;;;;;;6.37;1.60;;;18.80;99.90;;;;;;4935840;29;20209;-66
2023/06/02 17:57:00;;;;;;;3.20;1.60;;;18.80;99.90;;;;;;4935811;29;20234;-66
2023/06/02 17:59:27;;;;;;;5.27;2.30;;;18.70;99.90;;;;;;4935848;29;20260;-65
2023/06/02 18:01:54;;;;;;;7.17;1.50;;;18.50;99.90;;;;;;4935811;29;20771;-65
2023/06/02 18:04:21;;;;;;;4.07;1.57;;;18.40;99.90;;;;;;4935638;29;20208;-67
2023/06/02 18:06:48;;;;;;;5.67;1.50;;;18.40;99.90;;;;;;4935789;29;20236;-65
2023/06/02 18:09:15;;;;;;;2.60;1.50;;;18.40;99.90;;;;;;4936091;29;20236;-66
2023/06/02 18:11:45;;;;;;;6.37;1.90;;;18.20;99.90;;;;;;4935817;29;20225;-65
2023/06/02 18:14:12;;;;;;;5.07;1.50;;;18.20;99.90;;;;;;4935533;29;20211;-66
2023/06/02 18:16:39;;;;;;;3.67;1.90;;;18.00;99.90;;;;;;4935945;29;20260;-67
2023/06/02 18:19:06;;;;;;;6.27;1.93;;;18.00;99.90;;;;;;4936014;29;20287;-66
2023/06/02 18:21:33;;;;;;;4.87;1.70;;;18.10;99.90;;;;;;4935595;29;20303;-66
2023/06/02 18:24:00;;;;;;;4.30;1.30;;;18.10;99.90;;;;;;4935682;29;20213;-68
2023/06/02 18:26:27;;;;;;;4.30;1.53;;;18.00;99.90;;;;;;4935407;29;20235;-66
2023/06/02 18:28:55;;;;;;;4.70;1.63;;;17.90;99.90;;;;;;4935445;29;20209;-67
2023/06/02 18:31:22;;;;;;;3.47;1.60;;;18.00;99.90;;;;;;4935449;29;20208;-69
2023/06/02 18:33:49;;;;;;;3.53;1.30;;;18.00;99.90;;;;;;4935773;29;20213;-66
2023/06/02 18:36:16;;;;;;;4.07;1.67;;;17.90;99.90;;;;;;4935609;29;20703;-71
2023/06/02 18:38:43;;;;;;;6.00;1.93;;;17.70;99.90;;;;;;4935564;29;20215;-65
2023/06/02 18:41:10;;;;;;;5.73;1.67;;;17.70;99.90;;;;;;4935336;29;20296;-65
2023/06/02 18:43:36;;;;;;;4.47;1.63;;;17.70;99.90;;;;;;4935278;29;20703;-66
2023/06/02 18:46:05;;;;;;;7.37;1.77;;;17.70;99.90;;;;;;4935549;29;20209;-65
2023/06/02 18:48:32;;;;;;;3.77;1.50;;;17.60;99.90;;;;;;4935567;29;20211;-65
2023/06/02 18:50:58;;;;;;;4.53;1.30;;;17.50;99.90;;;;;;4935429;29;20213;-65
2023/06/02 18:53:25;;;;;;;5.03;1.57;;;17.50;99.90;;;;;;4935365;29;20209;-68
2023/06/02 18:55:52;;;;;;;3.63;1.60;;;17.40;99.90;;;;;;4935519;29;20738;-65
2023/06/02 18:58:19;;;;;;;4.17;1.47;;;17.50;99.90;;;;;;4935352;29;20327;-67
2023/06/02 19:00:46;;;;;;;3.10;1.27;;;17.50;99.90;;;;;;4935431;29;20209;-69
2023/06/02 19:03:14;;;;;;;3.10;1.20;;;17.50;99.90;;;;;;4935185;29;20240;-65
2023/06/02 19:05:41;;;;;;;5.00;1.57;;;17.60;99.90;;;;;;4938034;29;20208;-64
2023/06/02 19:08:08;;;;;;;2.73;1.40;;;17.50;99.90;;;;;;4938710;29;20228;-65
2023/06/02 19:10:34;;;;;;;4.93;1.57;;;17.40;99.90;;;;;;4939048;29;20209;-65
2023/06/02 19:13:01;;;;;;;6.03;1.70;;;17.30;99.90;;;;;;4938643;29;20216;-68
2023/06/02 19:15:29;;;;;;;7.53;1.70;;;17.20;99.90;;;;;;4938854;29;20688;-66
2023/06/02 19:17:57;;;;;;;3.33;1.30;;;17.20;99.90;;;;;;4938720;29;20699;-65
2023/06/02 19:20:25;;;;;;;9.37;1.60;;;17.10;99.90;;;;;;4938920;29;20268;-65
2023/06/02 19:22:52;;;;;;;4.70;1.60;;;17.10;99.90;;;;;;4938660;29;20240;-70
2023/06/02 19:25:18;;;;;;;3.20;1.13;;;17.00;99.90;;;;;;4938294;29;20255;-66
2023/06/02 19:27:45;;;;;;;7.97;1.70;;;16.90;99.90;;;;;;4938568;29;20233;-69
2023/06/02 19:30:13;;;;;;;2.73;1.40;;;16.90;99.90;;;;;;4938567;29;20212;-66
2023/06/02 19:32:42;;;;;;;3.93;1.40;;;16.90;99.90;;;;;;4938537;29;20600;-65
2023/06/02 19:35:09;;;;;;;4.07;1.37;;;16.80;99.90;;;;;;4938235;29;20616;-69
2023/06/02 19:37:38;;;;;;;4.03;1.20;;;16.90;99.90;;;;;;4938152;29;20235;-68
2023/06/02 19:40:06;;;;;;;4.30;1.37;;;16.80;99.90;;;;;;4938761;29;20223;-66
2023/06/02 19:42:33;;;;;;;5.90;1.80;;;16.80;99.90;;;;;;4938582;29;20636;-65
2023/06/02 19:44:59;;;;;;;6.40;1.43;;;16.80;99.90;;;;;;4938450;29;20213;-65
2023/06/02 19:47:26;;;;;;;4.57;1.20;;;16.60;99.90;;;;;;4938156;29;20232;-68
2023/06/02 19:49:53;;;;;;;4.40;1.40;;;16.60;99.90;;;;;;4938253;29;20291;-65
2023/06/02 19:52:20;;;;;;;6.90;1.50;;;16.70;99.90;;;;;;4938395;29;20216;-65
2023/06/02 19:54:48;;;;;;;3.47;1.03;;;16.80;99.90;;;;;;4938114;29;20660;-71
2023/06/02 19:57:15;;;;;;;6.00;1.33;;;16.70;99.90;;;;;;4938056;29;20229;-65
2023/06/02 19:59:42;;;;;;;2.07;1.10;;;16.60;99.90;;;;;;4938005;29;20212;-65
2023/06/02 20:02:09;;;;;;;7.17;1.70;;;16.50;99.90;;;;;;4937751;29;20307;-65
2023/06/02 20:04:36;;;;;;;4.07;1.10;;;16.40;99.90;;;;;;4937718;29;20295;-65
2023/06/02 20:07:04;;;;;;;3.03;1.10;;;16.30;99.90;;;;;;4937624;29;20229;-68
2023/06/02 20:09:31;;;;;;;3.37;1.53;;;16.20;99.90;;;;;;4937883;29;20212;-65
2023/06/02 20:11:59;;;;;;;2.60;1.30;;;16.20;99.90;;;;;;4937622;29;20220;-66
2023/06/02 20:14:28;;;;;;;3.13;1.93;;;16.30;99.90;;;;;;4937572;29;20264;-65
2023/06/02 20:16:55;;;;;;;6.37;1.33;;;16.40;99.90;;;;;;4936879;29;20228;-70
2023/06/02 20:19:22;;;;;;;3.77;1.23;;;16.40;99.90;;;;;;4937964;29;20209;-71
2023/06/02 20:21:49;;;;;;;2.60;1.40;;;16.40;99.90;;;;;;4938356;29;20643;-71
2023/06/02 20:24:16;;;;;;;2.77;1.13;;;16.30;99.90;;;;;;4938097;29;20236;-67
2023/06/02 20:26:43;;;;;;;3.77;1.17;;;16.20;99.90;;;;;;4937566;29;20319;-68
2023/06/02 20:29:11;;;;;;;4.87;1.50;;;16.10;99.90;;;;;;4937341;29;20537;-66
2023/06/02 20:31:38;;;;;;;3.43;1.40;;;16.20;99.90;;;;;;4937572;29;20304;-66
2023/06/02 20:34:05;;;;;;;2.67;1.60;;;16.20;99.90;;;;;;4937264;29;20686;-67
2023/06/02 20:36:32;;;;;;;2.57;1.37;;;16.30;99.90;;;;;;4937270;29;20319;-67
2023/06/02 20:38:59;;;;;;;5.00;1.30;;;16.20;99.90;;;;;;4937495;29;20304;-68
2023/06/02 20:41:25;;;;;;;2.83;1.43;;;16.20;99.90;;;;;;4937172;29;20631;-66
2023/06/02 20:43:52;;;;;;;3.43;1.60;;;16.10;99.90;;;;;;4937381;29;20239;-66
2023/06/02 20:46:21;;;;;;;2.73;1.60;;;16.10;99.90;;;;;;4937214;29;20232;-66
2023/06/02 20:48:47;;;;;;;3.60;1.30;;;16.10;99.90;;;;;;4936982;29;20272;-68
2023/06/02 20:51:14;;;;;;;3.23;1.50;;;16.10;99.90;;;;;;4937396;29;20204;-67
2023/06/02 20:53:41;;;;;;;4.23;1.40;;;16.00;99.90;;;;;;4936987;29;20609;-70
2023/06/02 20:56:08;;;;;;;5.40;1.30;;;15.90;99.90;;;;;;4937056;29;20219;-67
2023/06/02 20:58:35;;;;;;;3.30;1.30;;;15.90;99.90;;;;;;4936804;29;20219;-66
2023/06/02 21:01:02;;;;;;;2.70;1.07;;;15.80;99.90;;;;;;4936858;29;20300;-67
2023/06/02 21:03:30;;;;;;;2.67;1.20;;;15.80;99.90;;;;;;4937046;29;20246;-67
2023/06/02 21:05:57;;;;;;;3.90;1.23;;;15.80;99.90;;;;;;4936735;29;20204;-67
2023/06/02 21:08:23;;;;;;;2.20;1.20;;;15.70;99.90;;;;;;4936648;29;20213;-66
2023/06/02 21:10:50;;;;;;;7.00;1.60;;;15.60;99.90;;;;;;4936899;29;20211;-66
2023/06/02 21:13:17;;;;;;;2.47;1.57;;;15.50;99.90;;;;;;4936360;29;20303;-66
2023/06/02 21:15:44;;;;;;;6.27;1.60;;;15.40;99.90;;;;;;4936617;29;20208;-67
2023/06/02 21:18:11;;;;;;;4.17;1.70;;;15.40;99.90;;;;;;4936521;29;20786;-70
2023/06/02 21:20:39;;;;;;;3.20;1.30;;;15.40;99.90;;;;;;4936673;29;20205;-69
2023/06/02 21:23:06;;;;;;;6.73;1.73;;;15.30;99.90;;;;;;4936465;29;20233;-67
2023/06/02 21:25:33;;;;;;;3.80;1.70;;;15.20;99.90;;;;;;4936191;29;20545;-66
2023/06/02 21:28:00;;;;;;;4.27;1.70;;;15.20;99.90;;;;;;4935717;29;20243;-67
2023/06/02 21:30:26;;;;;;;2.37;1.93;;;15.10;99.90;;;;;;4936534;29;20209;-66
2023/06/02 21:32:53;;;;;;;6.17;2.23;;;14.90;99.90;;;;;;4936470;29;20213;-70
2023/06/02 21:35:20;;;;;;;3.50;2.30;;;14.80;99.90;;;;;;4936241;29;20219;-68
2023/06/02 21:37:48;;;;;;;4.83;2.10;;;14.80;99.90;;;;;;4936344;29;20233;-67
2023/06/02 21:40:16;;;;;;;4.37;1.83;;;14.90;99.90;;;;;;4936113;29;20215;-67
2023/06/02 21:42:43;;;;;;;5.70;2.20;;;14.80;99.90;;;;;;4935765;29;20323;-69
2023/06/02 21:45:11;;;;;;;3.13;1.70;;;14.80;99.90;;;;;;4936415;29;20213;-68
2023/06/02 21:47:38;;;;;;;3.77;1.90;;;14.80;99.90;;;;;;4936065;29;20711;-66
2023/06/02 21:50:05;;;;;;;4.50;1.90;;;14.80;99.90;;;;;;4936097;29;20212;-65
2023/06/02 21:52:32;;;;;;;4.07;1.67;;;14.80;99.90;;;;;;4936108;29;20208;-66
2023/06/02 21:55:01;;;;;;;5.90;2.03;;;14.80;99.90;;;;;;4935808;29;20215;-67
2023/06/02 21:57:27;;;;;;;3.83;1.50;;;14.70;99.90;;;;;;4935804;29;20243;-67
2023/06/02 21:59:54;;;;;;;6.30;1.60;;;14.70;99.90;;;;;;4936059;29;20213;-66
2023/06/02 22:02:21;;;;;;;2.40;1.60;;;14.70;99.90;;;;;;4935778;29;20216;-67
2023/06/02 22:04:48;;;;;;;7.13;1.73;;;14.70;99.90;;;;;;4936102;29;20240;-68
2023/06/02 22:07:15;;;;;;;2.83;1.50;;;14.80;99.90;;;;;;4936562;29;20311;-66
2023/06/02 22:09:42;;;;;;;3.67;1.40;;;14.70;99.90;;;;;;4935846;29;20579;-66
2023/06/02 22:12:10;;;;;;;2.20;1.70;;;14.70;99.90;;;;;;4935619;29;20318;-68
2023/06/02 22:14:37;;;;;;;4.43;1.30;;;14.60;99.90;;;;;;4935689;29;20244;-66
2023/06/02 22:17:04;;;;;;;4.43;1.63;;;14.60;99.90;;;;;;4935745;29;20232;-65
2023/06/02 22:19:31;;;;;;;4.00;1.47;;;14.40;99.90;;;;;;4935561;29;20213;-66
2023/06/02 22:21:58;;;;;;;7.27;1.63;;;14.40;99.90;;;;;;4935828;29;20299;-67
2023/06/02 22:24:24;;;;;;;4.53;1.80;;;14.60;99.90;;;;;;4935471;29;20240;-64
2023/06/02 22:26:51;;;;;;;4.77;1.77;;;14.70;99.90;;;;;;4935625;29;20236;-66
2023/06/02 22:29:19;;;;;;;6.57;1.73;;;14.70;99.90;;;;;;4935183;29;20668;-68
2023/06/02 22:31:46;;;;;;;3.27;1.67;;;14.70;99.90;;;;;;4935432;29;20656;-64
2023/06/02 22:34:13;;;;;;;4.57;1.73;;;14.70;99.90;;;;;;4935450;29;20690;-64
2023/06/02 22:36:40;;;;;;;5.93;1.93;;;14.60;99.90;;;;;;4935289;29;20233;-64
2023/06/02 22:39:07;;;;;;;5.33;1.60;;;14.60;99.90;;;;;;4935830;29;20211;-64
2023/06/02 22:41:34;;;;;;;2.73;1.53;;;14.50;99.90;;;;;;4939601;29;20630;-66
2023/06/02 22:44:00;;;;;;;5.03;1.70;;;14.50;99.90;;;;;;4939071;29;20237;-64
2023/06/02 22:46:29;;;;;;;4.17;1.63;;;14.50;99.90;;;;;;4939235;29;20715;-65
2023/06/02 22:48:55;;;;;;;3.10;1.80;;;14.50;99.90;;;;;;4939103;29;20213;-65
2023/06/02 22:51:22;;;;;;;5.57;2.00;;;14.50;99.90;;;;;;4938950;29;20230;-65
2023/06/02 22:53:49;;;;;;;5.90;1.77;;;14.40;99.90;;;;;;4938997;29;20217;-65
2023/06/02 22:56:16;;;;;;;9.40;1.73;;;14.40;99.90;;;;;;4939325;29;20236;-68
2023/06/02 22:58:43;;;;;;;4.67;2.30;;;14.30;99.90;;;;;;4939147;29;20238;-68
2023/06/02 23:01:09;;;;;;;6.47;2.13;;;14.30;99.90;;;;;;4939266;29;20219;-65
2023/06/02 23:03:37;;;;;;;2.77;1.97;;;14.30;99.90;;;;;;4938734;29;20228;-64
2023/06/02 23:06:05;;;;;;;8.77;2.77;;;14.20;99.90;;;;;;4938674;29;20209;-66
2023/06/02 23:08:32;;;;;;;4.90;2.03;;;14.20;99.90;;;;;;4938563;29;20225;-64
2023/06/02 23:10:59;;;;;;;4.10;1.73;;;14.10;99.90;;;;;;4938612;29;20276;-65
2023/06/02 23:13:26;;;;;;;5.27;1.77;;;14.10;99.90;;;;;;4938757;29;20213;-69
2023/06/02 23:15:53;;;;;;;3.40;1.63;;;14.00;99.90;;;;;;4938695;29;20212;-66
2023/06/02 23:18:20;;;;;;;5.03;2.00;;;13.90;99.90;;;;;;4938276;29;20239;-65
2023/06/02 23:20:48;;;;;;;4.23;1.73;;;13.80;99.90;;;;;;4938732;29;20208;-68
2023/06/02 23:23:15;;;;;;;7.80;2.00;;;13.70;99.90;;;;;;4938554;29;20313;-67
2023/06/02 23:25:41;;;;;;;4.47;1.80;;;13.60;99.90;;;;;;4938722;29;20248;-68
2023/06/02 23:28:08;;;;;;;4.83;1.50;;;13.60;99.90;;;;;;4938432;29;20233;-65
2023/06/02 23:30:35;;;;;;;3.83;1.90;;;13.60;99.90;;;;;;4938501;29;20304;-65
2023/06/02 23:33:03;;;;;;;5.43;1.87;;;13.50;99.90;;;;;;4938250;29;20217;-65
2023/06/02 23:35:30;;;;;;;3.67;1.77;;;13.50;99.90;;;;;;4938789;29;20295;-65
2023/06/02 23:37:58;;;;;;;7.90;2.07;;;13.40;99.90;;;;;;4938787;29;20605;-64
2023/06/02 23:40:24;;;;;;;3.30;1.80;;;13.50;99.90;;;;;;4938966;29;20220;-65
2023/06/02 23:43:01;;;;;;;5.03;1.70;;;13.50;99.90;;;;;;4938674;29;20209;-64
2023/06/02 23:45:27;;;;;;;5.50;1.80;;;13.40;99.90;;;;;;4938567;29;20624;-65
2023/06/02 23:47:54;;;;;;;4.17;2.10;;;13.40;99.90;;;;;;4938751;29;20224;-65
2023/06/02 23:50:21;;;;;;;4.17;1.77;;;13.40;99.90;;;;;;4938377;29;20754;-65
2023/06/02 23:52:50;;;;;;;4.23;1.70;;;13.20;99.90;;;;;;4938533;29;20213;-66
2023/06/02 23:55:18;;;;;;;6.40;2.13;;;13.30;99.90;;;;;;4938315;29;20299;-65
2023/06/02 23:57:46;;;;;;;4.97;2.10;;;13.30;99.90;;;;;;4938056;29;20224;-65
